Time;durP1;ratioP1;P1;durP2;ratioP2;P2;SDS_P1;SDS_P2;PMS_P1;PMS_P2;Temp;Humidity;BMP_temperature;BMP_pressure;BME280_temperature;BME280_humidity;BME280_pressure;Samples;Min_cycle;Max_cycle;Signal;HPM_P1;HPM_P2
2023/01/18 00:02:10;;;;;;;44.50;27.90;;;-3.40;99.90;;;;;;5075360;28;20462;-70
2023/01/18 00:04:37;;;;;;;47.67;27.83;;;-3.40;99.90;;;;;;5073111;28;20473;-71
2023/01/18 00:07:05;;;;;;;47.70;29.47;;;-3.50;99.90;;;;;;5071979;28;20466;-71
2023/01/18 00:09:32;;;;;;;61.13;36.67;;;-3.60;99.90;;;;;;5071258;28;21003;-71
2023/01/18 00:11:59;;;;;;;64.10;41.90;;;-3.50;99.90;;;;;;5071365;28;20925;-73
2023/01/18 00:14:26;;;;;;;57.47;38.30;;;-3.40;99.90;;;;;;5071277;28;20556;-70
2023/01/18 00:16:53;;;;;;;51.77;36.57;;;-3.40;99.90;;;;;;5070727;28;20463;-72
2023/01/18 00:19:20;;;;;;;54.40;34.70;;;-3.40;99.90;;;;;;5075832;28;20470;-69
2023/01/18 00:21:53;;;;;;;66.57;33.90;;;-3.50;99.90;;;;;;5070045;28;20482;-72
2023/01/18 00:24:21;;;;;;;53.10;33.90;;;-3.60;99.90;;;;;;5077156;28;20477;-71
2023/01/18 00:26:48;;;;;;;48.50;29.77;;;-3.70;99.90;;;;;;5071542;28;20961;-72
2023/01/18 00:29:15;;;;;;;45.20;27.60;;;-3.70;99.90;;;;;;5070595;28;20655;-72
2023/01/18 00:31:44;;;;;;;44.77;28.90;;;-3.80;99.90;;;;;;5066761;28;20526;-72
2023/01/18 00:34:11;;;;;;;44.77;25.93;;;-3.90;99.90;;;;;;5070812;28;20665;-73
2023/01/18 00:36:39;;;;;;;38.07;28.73;;;-3.90;99.90;;;;;;5078027;28;20469;-70
2023/01/18 00:39:07;;;;;;;46.57;27.37;;;-3.90;99.90;;;;;;5074147;28;20462;-73
2023/01/18 00:43:37;;;;;;;39.00;26.60;;;-3.90;99.90;;;;;;5072388;28;21029;-73
2023/01/18 00:44:22;;;;;;;52.03;33.03;;;-3.80;99.90;;;;;;5073671;28;20464;-72
2023/01/18 00:46:49;;;;;;;47.40;29.40;;;-3.90;99.90;;;;;;5063848;28;20632;-72
2023/01/18 00:49:16;;;;;;;44.43;31.73;;;-3.90;99.90;;;;;;5073285;28;20487;-70
2023/01/18 00:51:42;;;;;;;59.00;34.27;;;-3.90;99.90;;;;;;5073998;28;20467;-72
2023/01/18 00:54:09;;;;;;;49.10;34.40;;;-3.80;99.90;;;;;;5075553;28;20458;-72
2023/01/18 00:56:38;;;;;;;54.90;32.60;;;-3.70;99.90;;;;;;5075180;28;20825;-71
2023/01/18 00:59:05;;;;;;;50.50;31.20;;;-3.70;99.90;;;;;;5066171;28;20459;-72
2023/01/18 01:01:31;;;;;;;41.90;30.20;;;-3.70;99.90;;;;;;5059846;28;20474;-72
2023/01/18 01:06:45;;;;;;;57.47;34.90;;;-3.70;99.90;;;;;;5071356;28;20513;-70
2023/01/18 01:09:14;;;;;;;49.80;35.07;;;-3.80;99.90;;;;;;5071293;28;20588;-69
2023/01/18 01:12:31;;;;;;;46.73;31.90;;;-3.70;99.90;;;;;;5064128;28;20477;-72
2023/01/18 01:28:15;;;;;;;39.17;29.37;;;-3.60;99.90;;;;;;5076263;28;20807;-72
2023/01/18 01:30:43;;;;;;;43.73;28.93;;;-3.60;99.90;;;;;;5064075;28;20587;-74
2023/01/18 01:33:10;;;;;;;33.33;26.00;;;-3.60;99.90;;;;;;5071984;28;20467;-73
2023/01/18 01:35:36;;;;;;;40.13;27.57;;;-3.70;99.90;;;;;;5059306;28;20527;-70
2023/01/18 01:38:03;;;;;;;34.70;27.37;;;-3.70;99.90;;;;;;5069125;28;20472;-70
2023/01/18 01:40:31;;;;;;;34.60;24.50;;;-3.80;99.90;;;;;;5070248;28;20492;-70
2023/01/18 01:42:58;;;;;;;29.60;23.57;;;-3.90;99.90;;;;;;5070648;28;20495;-72
2023/01/18 01:45:30;;;;;;;31.40;21.87;;;-3.90;99.90;;;;;;5064315;28;20843;-72
2023/01/18 01:47:57;;;;;;;28.97;23.67;;;-3.90;99.90;;;;;;5064999;28;20492;-70
2023/01/18 01:50:29;;;;;;;35.67;23.47;;;-3.80;99.90;;;;;;5069020;28;20855;-73
2023/01/18 01:52:57;;;;;;;36.07;24.67;;;-3.70;99.90;;;;;;5063609;28;20463;-73
2023/01/18 01:55:28;;;;;;;37.27;24.07;;;-3.60;99.90;;;;;;5078528;28;20459;-71
2023/01/18 01:57:58;;;;;;;34.83;23.63;;;-3.50;99.90;;;;;;5071455;28;20892;-71
2023/01/18 02:00:26;;;;;;;33.43;24.40;;;-3.40;99.90;;;;;;5063856;28;21304;-72
2023/01/18 02:02:58;;;;;;;32.80;23.07;;;-3.30;99.90;;;;;;5065311;28;20454;-70
2023/01/18 02:05:25;;;;;;;27.80;23.37;;;-3.40;99.90;;;;;;5068127;28;20465;-72
2023/01/18 02:07:53;;;;;;;33.87;24.50;;;-3.40;99.90;;;;;;5071826;28;20475;-72
2023/01/18 02:10:21;;;;;;;27.17;21.30;;;-3.50;99.90;;;;;;5061599;28;20489;-72
2023/01/18 02:12:50;;;;;;;39.33;26.50;;;-3.50;99.90;;;;;;5076531;28;20462;-69
2023/01/18 02:15:18;;;;;;;27.10;24.03;;;-3.50;99.90;;;;;;5064906;28;20919;-69
2023/01/18 02:18:10;;;;;;;30.23;22.87;;;-3.50;99.90;;;;;;5064495;28;20851;-70
2023/01/18 02:21:03;;;;;;;24.17;21.43;;;-3.50;99.90;;;;;;5067804;28;20455;-72
2023/01/18 02:24:09;;;;;;;27.10;22.30;;;-3.70;99.90;;;;;;5066619;28;20941;-73
2023/01/18 02:26:51;;;;;;;29.13;22.70;;;-3.70;99.90;;;;;;5002252;28;20471;-72
2023/01/18 02:29:25;;;;;;;28.50;22.60;;;-3.70;99.90;;;;;;5070236;28;20474;-73
2023/01/18 02:32:05;;;;;;;26.57;22.67;;;-3.80;99.90;;;;;;5059384;28;20473;-72
2023/01/18 02:34:39;;;;;;;31.87;24.33;;;-3.90;99.90;;;;;;5064457;28;20498;-72
2023/01/18 02:37:13;;;;;;;33.93;24.20;;;-4.00;99.90;;;;;;5070023;28;20493;-72
2023/01/18 02:39:49;;;;;;;27.60;22.03;;;-4.10;99.90;;;;;;5070635;28;20491;-70
2023/01/18 02:47:58;;;;;;;33.27;22.70;;;-3.90;99.90;;;;;;5066810;28;20485;-71
2023/01/18 02:50:28;;;;;;;28.00;23.03;;;-3.80;99.90;;;;;;5067486;28;21007;-71
2023/01/18 02:52:54;;;;;;;24.07;21.50;;;-3.80;99.90;;;;;;5067430;28;20458;-73
2023/01/18 02:55:30;;;;;;;26.93;24.13;;;-3.80;99.90;;;;;;5075165;28;20466;-73
2023/01/18 02:58:02;;;;;;;25.00;22.30;;;-3.80;99.90;;;;;;5080010;28;20554;-72
2023/01/18 03:00:34;;;;;;;28.00;23.47;;;-3.80;99.90;;;;;;5065618;28;20490;-70
2023/01/18 03:03:02;;;;;;;31.37;22.53;;;-3.90;99.90;;;;;;5070563;28;21057;-73
2023/01/18 03:05:30;;;;;;;28.87;23.73;;;-3.90;99.90;;;;;;5068371;28;20893;-72
2023/01/18 03:08:05;;;;;;;32.47;23.60;;;-3.90;99.90;;;;;;5070555;28;20467;-72
2023/01/18 03:10:34;;;;;;;25.93;23.23;;;-3.90;99.90;;;;;;5063888;28;20922;-72
2023/01/18 03:13:08;;;;;;;28.20;24.10;;;-3.80;99.90;;;;;;5069408;28;20463;-70
2023/01/18 03:15:46;;;;;;;30.30;23.63;;;-3.80;99.90;;;;;;5068940;28;20973;-73
2023/01/18 03:18:18;;;;;;;31.83;22.73;;;-3.90;99.90;;;;;;5070509;28;20477;-73
2023/01/18 03:20:51;;;;;;;29.50;22.47;;;-4.00;99.90;;;;;;5065677;28;20570;-73
2023/01/18 03:23:39;;;;;;;29.37;24.80;;;-4.20;99.90;;;;;;5068224;28;20463;-71
2023/01/18 03:26:09;;;;;;;27.23;23.17;;;-4.40;99.90;;;;;;5069408;28;20828;-71
2023/01/18 03:34:20;;;;;;;30.07;24.20;;;-4.20;99.90;;;;;;5064310;28;20452;-71
2023/01/18 03:36:51;;;;;;;24.43;21.03;;;-4.30;99.90;;;;;;5066086;28;20872;-73
2023/01/18 03:39:24;;;;;;;24.57;22.00;;;-4.40;99.90;;;;;;5074437;28;20486;-70
2023/01/18 03:41:54;;;;;;;27.80;23.53;;;-4.50;99.90;;;;;;5074132;28;20467;-71
2023/01/18 03:44:28;;;;;;;31.37;25.13;;;-4.50;99.90;;;;;;5079256;28;20822;-69
2023/01/18 03:46:56;;;;;;;34.13;25.93;;;-4.30;99.90;;;;;;5070926;28;20540;-70
2023/01/18 03:49:26;;;;;;;28.83;23.47;;;-4.20;99.90;;;;;;5077377;28;20458;-69
2023/01/18 03:52:07;;;;;;;32.17;25.00;;;-4.30;99.90;;;;;;5065639;28;20494;-71
2023/01/18 03:54:38;;;;;;;29.83;24.00;;;-4.40;99.90;;;;;;5066932;28;20463;-71
2023/01/18 03:57:12;;;;;;;35.73;25.70;;;-4.30;99.90;;;;;;5071181;28;20968;-72
2023/01/18 03:59:40;;;;;;;26.77;23.80;;;-4.10;99.90;;;;;;5075655;28;20464;-72
2023/01/18 04:02:09;;;;;;;35.37;25.53;;;-3.90;99.90;;;;;;5068249;28;20472;-72
2023/01/18 04:04:36;;;;;;;31.17;24.57;;;-3.90;99.90;;;;;;5071599;28;20466;-71
2023/01/18 04:07:03;;;;;;;35.37;25.73;;;-3.70;99.90;;;;;;5071603;28;20470;-70
2023/01/18 04:09:30;;;;;;;30.80;26.70;;;-3.70;99.90;;;;;;5067614;28;21065;-71
2023/01/18 04:11:58;;;;;;;29.90;25.03;;;-3.80;99.90;;;;;;5073278;28;20482;-72
2023/01/18 04:14:25;;;;;;;33.13;23.87;;;-3.80;99.90;;;;;;5071036;28;20459;-70
2023/01/18 04:16:53;;;;;;;28.73;24.67;;;-4.00;99.90;;;;;;5075624;28;20478;-70
2023/01/18 04:19:22;;;;;;;35.67;25.70;;;-4.10;99.90;;;;;;5068455;28;20819;-71
2023/01/18 04:21:49;;;;;;;29.87;25.83;;;-4.10;99.90;;;;;;5075777;28;20471;-72
2023/01/18 04:24:16;;;;;;;39.73;25.53;;;-4.00;99.90;;;;;;5072761;28;20450;-69
2023/01/18 04:26:43;;;;;;;38.90;24.67;;;-3.90;99.90;;;;;;5079900;28;20865;-73
2023/01/18 04:29:09;;;;;;;32.93;24.27;;;-3.90;99.90;;;;;;5073229;28;20924;-72
2023/01/18 04:31:36;;;;;;;34.70;25.07;;;-3.80;99.90;;;;;;5067146;28;20820;-70
2023/01/18 04:34:03;;;;;;;31.30;25.10;;;-3.90;99.90;;;;;;5073419;28;20458;-72
2023/01/18 04:36:31;;;;;;;32.33;25.20;;;-4.00;99.90;;;;;;5075113;28;20980;-72
2023/01/18 04:39:00;;;;;;;29.20;24.43;;;-4.10;99.90;;;;;;5079235;28;20901;-70
2023/01/18 04:41:28;;;;;;;31.40;23.80;;;-4.20;99.90;;;;;;5070170;28;20467;-72
2023/01/18 04:43:56;;;;;;;29.83;26.33;;;-4.20;99.90;;;;;;5068991;28;20815;-71
2023/01/18 04:46:22;;;;;;;37.27;26.10;;;-4.20;99.90;;;;;;5067089;28;20489;-72
2023/01/18 04:48:51;;;;;;;33.97;25.63;;;-4.10;99.90;;;;;;5069053;28;20470;-71
2023/01/18 04:51:18;;;;;;;33.73;25.33;;;-4.10;99.90;;;;;;5071427;28;20563;-72
2023/01/18 04:53:46;;;;;;;34.83;26.10;;;-3.90;99.90;;;;;;5072113;28;20466;-72
2023/01/18 04:56:13;;;;;;;37.13;25.27;;;-3.80;99.90;;;;;;5077813;28;20461;-72
2023/01/18 04:58:40;;;;;;;56.60;25.07;;;-3.70;99.90;;;;;;5066873;28;20459;-71
2023/01/18 05:01:11;;;;;;;35.70;22.83;;;-3.60;99.90;;;;;;5065146;28;20466;-72
2023/01/18 05:03:40;;;;;;;31.53;25.37;;;-3.60;99.90;;;;;;5072650;28;20866;-71
2023/01/18 05:06:08;;;;;;;33.07;22.97;;;-3.50;99.90;;;;;;5070830;28;20447;-72
2023/01/18 05:08:39;;;;;;;32.07;24.73;;;-3.40;99.90;;;;;;5071455;28;20472;-73
2023/01/18 05:11:09;;;;;;;28.07;25.07;;;-3.40;99.90;;;;;;5075477;28;20497;-72
2023/01/18 05:13:37;;;;;;;31.40;23.47;;;-3.40;99.90;;;;;;5072147;28;20943;-70
2023/01/18 05:16:05;;;;;;;41.07;24.67;;;-3.30;99.90;;;;;;5076384;28;20462;-70
2023/01/18 05:18:32;;;;;;;36.70;24.77;;;-3.30;99.90;;;;;;5072754;28;20484;-72
2023/01/18 05:20:59;;;;;;;38.53;24.40;;;-3.20;99.90;;;;;;5068706;28;20929;-73
2023/01/18 05:23:25;;;;;;;36.13;23.77;;;-3.20;99.90;;;;;;5066768;28;20684;-71
2023/01/18 05:25:53;;;;;;;32.20;24.50;;;-3.10;99.90;;;;;;5078745;28;20475;-72
2023/01/18 05:28:22;;;;;;;33.80;22.80;;;-3.10;99.90;;;;;;5075164;28;20548;-71
2023/01/18 05:30:50;;;;;;;42.93;24.47;;;-3.10;99.90;;;;;;5064964;28;20518;-71
2023/01/18 05:33:17;;;;;;;43.60;24.83;;;-3.00;99.90;;;;;;5069109;28;20876;-73
2023/01/18 05:35:49;;;;;;;32.67;25.63;;;-3.00;99.90;;;;;;5069075;28;20466;-70
2023/01/18 05:38:16;;;;;;;34.83;24.90;;;-2.90;99.90;;;;;;5071833;28;20461;-70
2023/01/18 05:40:44;;;;;;;37.17;23.80;;;-2.90;99.90;;;;;;5071515;28;20503;-69
2023/01/18 05:43:11;;;;;;;43.43;23.37;;;-2.90;99.90;;;;;;5070800;28;20541;-70
2023/01/18 05:45:41;;;;;;;34.67;23.83;;;-2.90;99.90;;;;;;5067051;28;20491;-72
2023/01/18 05:48:09;;;;;;;35.53;24.33;;;-2.90;99.90;;;;;;5066781;28;20477;-72
2023/01/18 05:50:37;;;;;;;35.57;25.63;;;-2.90;99.90;;;;;;5075522;28;20473;-70
2023/01/18 05:53:04;;;;;;;38.87;24.77;;;-2.80;99.90;;;;;;5069402;28;20462;-72
2023/01/18 05:55:31;;;;;;;33.27;23.30;;;-2.90;99.90;;;;;;5074743;28;20466;-71
2023/01/18 05:57:58;;;;;;;36.37;23.93;;;-2.90;99.90;;;;;;5074414;28;20462;-71
2023/01/18 06:00:25;;;;;;;31.87;24.57;;;-2.90;99.90;;;;;;5066873;28;20459;-71
2023/01/18 06:02:55;;;;;;;32.47;23.60;;;-2.90;99.90;;;;;;5066843;28;20492;-71
2023/01/18 06:05:23;;;;;;;32.33;24.20;;;-2.90;99.90;;;;;;5074891;28;20844;-72
2023/01/18 06:07:50;;;;;;;38.30;23.80;;;-2.80;99.90;;;;;;5069510;28;20467;-72
2023/01/18 06:10:17;;;;;;;35.67;23.00;;;-2.90;99.90;;;;;;5075695;28;20462;-72
2023/01/18 06:12:45;;;;;;;26.53;23.10;;;-2.90;99.90;;;;;;5075066;28;20493;-72
2023/01/18 06:15:14;;;;;;;36.53;23.60;;;-2.90;99.90;;;;;;5069199;28;20599;-72
2023/01/18 06:17:41;;;;;;;34.20;23.90;;;-2.90;99.90;;;;;;5066517;28;20467;-70
2023/01/18 06:20:11;;;;;;;30.13;23.13;;;-2.90;99.90;;;;;;5061648;28;20471;-72
2023/01/18 06:22:39;;;;;;;30.33;23.13;;;-2.90;99.90;;;;;;5064185;28;20458;-73
2023/01/18 06:25:07;;;;;;;29.17;24.30;;;-2.90;99.90;;;;;;5066418;28;20466;-70
2023/01/18 06:27:34;;;;;;;32.40;25.90;;;-2.90;99.90;;;;;;5070727;28;20518;-70
2023/01/18 06:30:03;;;;;;;36.87;24.10;;;-2.90;99.90;;;;;;5068629;28;20497;-72
2023/01/18 06:32:30;;;;;;;29.30;23.80;;;-2.80;99.90;;;;;;5065866;28;20671;-70
2023/01/18 06:34:57;;;;;;;31.10;23.30;;;-2.70;99.90;;;;;;5066470;28;20970;-69
2023/01/18 06:37:25;;;;;;;43.90;25.57;;;-2.70;99.90;;;;;;5072451;28;20871;-72
2023/01/18 06:39:52;;;;;;;37.07;25.43;;;-2.70;99.90;;;;;;5073584;28;20593;-71
2023/01/18 06:42:19;;;;;;;35.13;24.20;;;-2.70;99.90;;;;;;5071301;28;20465;-70
2023/01/18 06:44:46;;;;;;;31.10;25.20;;;-2.70;99.90;;;;;;5062611;28;20463;-72
2023/01/18 06:47:14;;;;;;;37.03;22.67;;;-2.70;99.90;;;;;;5057895;28;20871;-72
2023/01/18 06:49:41;;;;;;;36.53;24.40;;;-2.60;99.90;;;;;;5071928;28;20471;-73
2023/01/18 06:52:07;;;;;;;33.83;26.40;;;-2.60;99.90;;;;;;5068280;28;20807;-71
2023/01/18 06:54:36;;;;;;;29.60;23.80;;;-2.60;99.90;;;;;;5070575;28;20470;-72
2023/01/18 06:57:04;;;;;;;31.33;23.33;;;-2.60;99.90;;;;;;5059734;28;20450;-72
2023/01/18 06:59:31;;;;;;;30.50;24.43;;;-2.60;99.90;;;;;;5070294;28;20482;-73
2023/01/18 07:01:57;;;;;;;33.30;25.17;;;-2.50;99.90;;;;;;5067071;28;20469;-73
2023/01/18 07:04:24;;;;;;;34.83;25.93;;;-2.50;99.90;;;;;;5069096;28;20467;-70
2023/01/18 07:06:51;;;;;;;30.90;23.50;;;-2.50;99.90;;;;;;5065653;28;20568;-73
2023/01/18 07:09:17;;;;;;;40.27;23.60;;;-2.50;99.90;;;;;;5067401;28;20468;-72
2023/01/18 07:11:46;;;;;;;35.37;24.03;;;-2.60;99.90;;;;;;5062063;28;20489;-71
2023/01/18 07:14:14;;;;;;;32.30;26.73;;;-2.60;99.90;;;;;;5065071;28;20479;-69
2023/01/18 07:16:41;;;;;;;30.37;23.80;;;-2.60;99.90;;;;;;5067967;28;20469;-71
2023/01/18 07:19:08;;;;;;;32.37;25.27;;;-2.60;99.90;;;;;;5073479;28;20532;-73
2023/01/18 07:21:34;;;;;;;28.50;22.50;;;-2.50;99.90;;;;;;5068706;28;20466;-70
2023/01/18 07:24:01;;;;;;;36.60;22.33;;;-2.50;99.90;;;;;;5071589;28;20532;-73
2023/01/18 07:26:28;;;;;;;41.50;24.90;;;-2.50;99.90;;;;;;5069513;28;20472;-70
2023/01/18 07:28:56;;;;;;;35.27;24.90;;;-2.60;99.90;;;;;;5077060;28;20502;-72
2023/01/18 07:31:23;;;;;;;30.00;23.43;;;-2.60;99.90;;;;;;5066445;28;20489;-71
2023/01/18 07:33:51;;;;;;;28.47;24.60;;;-2.70;99.90;;;;;;5072024;28;20467;-73
2023/01/18 07:36:19;;;;;;;27.27;22.83;;;-2.70;99.90;;;;;;5071839;28;20469;-71
2023/01/18 07:38:47;;;;;;;29.27;23.80;;;-2.70;99.90;;;;;;5067499;28;21472;-71
2023/01/18 07:41:16;;;;;;;33.87;24.73;;;-2.70;99.90;;;;;;5072196;28;20486;-72
2023/01/18 07:43:44;;;;;;;30.07;25.30;;;-2.70;99.90;;;;;;5072332;28;20463;-71
2023/01/18 07:46:15;;;;;;;29.70;23.47;;;-2.70;99.90;;;;;;5072578;28;20495;-71
2023/01/18 07:48:43;;;;;;;28.77;22.10;;;-2.70;99.90;;;;;;5075478;28;20535;-74
2023/01/18 07:51:11;;;;;;;25.37;22.67;;;-2.70;99.90;;;;;;5068774;28;20901;-74
2023/01/18 07:53:38;;;;;;;31.93;23.17;;;-2.70;99.90;;;;;;5074687;28;20879;-71
2023/01/18 07:56:08;;;;;;;38.27;27.50;;;-2.60;99.90;;;;;;5068074;28;20461;-70
2023/01/18 07:58:35;;;;;;;32.33;26.07;;;-2.60;99.90;;;;;;5046756;28;20467;-72
2023/01/18 08:01:04;;;;;;;33.70;25.53;;;-2.50;99.90;;;;;;5064470;28;20481;-74
2023/01/18 08:03:32;;;;;;;32.27;26.10;;;-2.50;99.90;;;;;;5053469;28;20471;-71
2023/01/18 08:06:00;;;;;;;29.97;24.40;;;-2.50;99.90;;;;;;5058780;28;20981;-70
2023/01/18 08:08:27;;;;;;;34.90;27.47;;;-2.50;99.90;;;;;;5070661;28;20933;-71
2023/01/18 08:10:56;;;;;;;32.43;25.23;;;-2.40;99.90;;;;;;5075179;28;20486;-72
2023/01/18 08:13:23;;;;;;;27.40;24.27;;;-2.40;99.90;;;;;;5060301;28;20489;-70
2023/01/18 08:15:50;;;;;;;34.03;24.27;;;-2.30;99.90;;;;;;5062123;28;20469;-69
2023/01/18 08:18:17;;;;;;;32.70;26.07;;;-2.20;99.90;;;;;;5064464;28;20964;-72
2023/01/18 08:20:47;;;;;;;33.20;25.87;;;-2.10;99.90;;;;;;5067152;28;20466;-71
2023/01/18 08:23:14;;;;;;;28.77;24.07;;;-2.10;99.90;;;;;;5067978;28;20599;-70
2023/01/18 08:25:41;;;;;;;27.73;24.77;;;-2.00;99.90;;;;;;5064925;28;20476;-72
2023/01/18 08:28:09;;;;;;;34.13;26.10;;;-2.00;99.90;;;;;;5068823;28;20458;-71
2023/01/18 08:30:38;;;;;;;31.43;25.10;;;-1.90;99.90;;;;;;5066981;28;20584;-72
2023/01/18 08:33:06;;;;;;;32.60;26.00;;;-1.90;99.90;;;;;;5063373;28;20580;-70
2023/01/18 08:35:35;;;;;;;32.63;25.67;;;-1.80;99.90;;;;;;5074013;28;20814;-69
2023/01/18 08:38:04;;;;;;;37.23;27.30;;;-1.80;99.90;;;;;;5073408;28;20801;-71
2023/01/18 08:40:30;;;;;;;29.87;25.83;;;-1.70;99.90;;;;;;5069340;28;21091;-72
2023/01/18 08:42:59;;;;;;;28.93;25.37;;;-1.70;99.90;;;;;;5063153;28;20499;-72
2023/01/18 08:45:26;;;;;;;32.37;25.53;;;-1.60;99.90;;;;;;5069600;28;20833;-71
2023/01/18 08:47:57;;;;;;;33.87;27.50;;;-1.50;99.90;;;;;;5062892;28;20482;-68
2023/01/18 08:50:24;;;;;;;34.47;25.93;;;-1.40;99.90;;;;;;5066827;28;21283;-70
2023/01/18 08:52:52;;;;;;;29.97;26.70;;;-1.40;99.90;;;;;;5064671;28;20490;-73
2023/01/18 08:55:23;;;;;;;31.33;26.60;;;-1.40;99.90;;;;;;5069124;28;20457;-69
2023/01/18 08:57:53;;;;;;;37.33;25.87;;;-1.30;99.90;;;;;;5062781;28;20466;-72
2023/01/18 09:00:22;;;;;;;33.00;25.63;;;-1.20;99.90;;;;;;5066899;28;20470;-72
2023/01/18 09:02:50;;;;;;;29.30;23.63;;;-1.10;99.90;;;;;;5065435;28;20468;-69
2023/01/18 09:05:17;;;;;;;33.37;25.50;;;-1.10;99.90;;;;;;5068167;28;20549;-71
2023/01/18 09:07:45;;;;;;;31.20;26.00;;;-1.00;99.90;;;;;;5067652;28;20474;-72
2023/01/18 09:10:12;;;;;;;38.83;27.50;;;-1.00;99.90;;;;;;5064926;28;20971;-72
2023/01/18 09:12:41;;;;;;;30.77;24.50;;;-0.90;99.90;;;;;;5068626;28;20496;-70
2023/01/18 09:15:09;;;;;;;39.03;27.00;;;-0.90;99.90;;;;;;5062382;28;20559;-72
2023/01/18 09:17:36;;;;;;;31.73;27.53;;;-0.80;99.90;;;;;;5067405;28;20459;-72
2023/01/18 09:20:06;;;;;;;36.90;27.83;;;-0.70;99.90;;;;;;5071188;28;20462;-71
2023/01/18 09:22:33;;;;;;;31.97;25.20;;;-0.70;99.90;;;;;;5063680;28;20464;-73
2023/01/18 09:25:00;;;;;;;32.97;26.17;;;-0.60;99.90;;;;;;5070328;28;20550;-73
2023/01/18 09:27:27;;;;;;;32.10;26.20;;;-0.60;99.90;;;;;;5063369;28;20462;-71
2023/01/18 09:29:55;;;;;;;31.17;26.40;;;-0.60;99.90;;;;;;5067036;28;20470;-73
2023/01/18 09:32:24;;;;;;;33.93;26.53;;;-0.50;99.90;;;;;;5063989;28;20496;-72
2023/01/18 09:34:51;;;;;;;36.73;28.23;;;-0.40;99.90;;;;;;5064689;28;20948;-70
2023/01/18 09:37:18;;;;;;;43.93;28.33;;;-0.40;99.90;;;;;;5069597;28;20461;-71
2023/01/18 09:39:45;;;;;;;38.30;27.60;;;-0.40;99.90;;;;;;5067887;28;20626;-69
2023/01/18 09:42:21;;;;;;;39.17;28.77;;;-0.40;99.90;;;;;;5065095;28;20470;-72
2023/01/18 09:44:51;;;;;;;39.10;28.17;;;-0.30;99.90;;;;;;5065081;28;20462;-72
2023/01/18 09:47:23;;;;;;;35.73;27.27;;;-0.40;99.90;;;;;;5056344;28;20500;-70
2023/01/18 09:49:55;;;;;;;44.20;27.03;;;-0.40;99.90;;;;;;5056246;28;20524;-72
2023/01/18 09:52:37;;;;;;;34.00;26.53;;;-0.40;99.90;;;;;;5058761;28;20490;-73
2023/01/18 09:55:15;;;;;;;31.07;26.13;;;-0.40;99.90;;;;;;5063129;28;20485;-72
2023/01/18 09:57:55;;;;;;;36.90;25.20;;;-0.30;99.90;;;;;;5062286;28;21433;-69
2023/01/18 10:00:24;;;;;;;39.03;26.70;;;-0.30;99.90;;;;;;5064162;28;20509;-70
2023/01/18 10:02:55;;;;;;;30.27;26.27;;;-0.20;99.90;;;;;;5067111;28;20581;-73
2023/01/18 10:05:26;;;;;;;28.27;25.20;;;-0.20;99.90;;;;;;5063774;28;20463;-70
2023/01/18 10:08:03;;;;;;;31.10;27.27;;;-0.20;99.90;;;;;;5063647;28;20458;-73
2023/01/18 10:10:35;;;;;;;30.93;25.33;;;-0.10;99.90;;;;;;5063247;28;20846;-74
2023/01/18 10:13:38;;;;;;;30.63;25.67;;;-0.10;99.90;;;;;;5060473;28;21221;-70
2023/01/18 10:16:13;;;;;;;31.27;26.57;;;0.00;99.90;;;;;;4977977;28;21020;-71
2023/01/18 10:18:44;;;;;;;30.67;26.13;;;0.00;99.90;;;;;;5046354;28;20476;-71
2023/01/18 10:21:18;;;;;;;30.57;27.33;;;0.00;99.90;;;;;;5064152;28;20463;-70
2023/01/18 10:23:52;;;;;;;33.30;25.60;;;0.10;99.90;;;;;;5061461;28;20471;-71
2023/01/18 10:26:26;;;;;;;29.97;26.80;;;0.10;99.90;;;;;;5065387;28;20469;-72
2023/01/18 10:29:00;;;;;;;34.77;26.87;;;0.20;99.90;;;;;;5061849;28;20454;-73
2023/01/18 10:31:38;;;;;;;35.07;25.10;;;0.20;99.90;;;;;;5065570;28;20969;-71
2023/01/18 10:34:16;;;;;;;26.73;21.80;;;0.20;99.90;;;;;;5063812;28;20576;-69
2023/01/18 10:36:46;;;;;;;33.10;26.30;;;0.20;99.90;;;;;;5071034;28;21423;-72
2023/01/18 10:39:27;;;;;;;31.10;25.27;;;0.30;99.90;;;;;;5060775;28;20469;-70
2023/01/18 10:41:58;;;;;;;35.07;27.30;;;0.30;99.90;;;;;;5064832;28;20459;-71
2023/01/18 10:44:25;;;;;;;32.40;26.40;;;0.30;99.90;;;;;;5068194;28;20557;-72
2023/01/18 10:46:56;;;;;;;32.10;26.10;;;0.40;99.90;;;;;;5061856;28;21015;-70
2023/01/18 10:49:39;;;;;;;29.97;26.83;;;0.50;99.90;;;;;;5063861;28;20549;-71
2023/01/18 10:52:26;;;;;;;33.53;26.63;;;0.50;99.90;;;;;;5054036;28;20642;-73
2023/01/18 10:54:56;;;;;;;32.00;27.67;;;0.60;99.90;;;;;;5057264;28;20459;-71
2023/01/18 10:57:28;;;;;;;28.87;25.97;;;0.70;99.90;;;;;;5068279;28;20458;-71
2023/01/18 10:59:55;;;;;;;34.23;28.70;;;0.70;99.90;;;;;;5060999;28;20586;-73
2023/01/18 11:02:26;;;;;;;35.53;27.40;;;0.80;99.90;;;;;;5064124;28;20463;-73
2023/01/18 11:04:59;;;;;;;31.27;26.07;;;0.80;99.90;;;;;;5068137;28;20455;-72
2023/01/18 11:07:27;;;;;;;41.40;27.93;;;0.90;99.90;;;;;;5062527;28;20835;-73
2023/01/18 11:09:58;;;;;;;34.03;30.40;;;0.90;99.90;;;;;;5065537;28;20462;-69
2023/01/18 11:12:35;;;;;;;29.40;26.53;;;1.10;99.90;;;;;;5062175;28;20573;-71
2023/01/18 11:15:27;;;;;;;37.10;31.20;;;1.20;99.90;;;;;;5068672;28;20450;-73
2023/01/18 11:18:04;;;;;;;36.83;33.07;;;1.80;99.90;;;;;;5067219;28;20474;-74
2023/01/18 11:20:37;;;;;;;39.43;32.50;;;2.50;99.90;;;;;;5064185;28;20474;-72
2023/01/18 11:23:06;;;;;;;33.27;29.80;;;3.20;99.90;;;;;;5063289;28;20528;-75
2023/01/18 11:25:38;;;;;;;32.03;28.80;;;3.60;99.90;;;;;;5058394;28;20939;-75
2023/01/18 11:28:12;;;;;;;30.10;27.10;;;3.70;99.90;;;;;;5054209;28;20470;-72
2023/01/18 11:30:51;;;;;;;31.10;27.83;;;3.80;99.90;;;;;;5060888;28;20513;-73
2023/01/18 11:33:19;;;;;;;30.60;27.20;;;3.80;99.90;;;;;;5064006;28;20524;-74
2023/01/18 11:35:53;;;;;;;30.57;27.30;;;3.70;99.90;;;;;;5064636;28;20473;-73
2023/01/18 11:38:21;;;;;;;30.73;26.90;;;3.70;99.90;;;;;;5064626;28;20561;-72
2023/01/18 11:41:01;;;;;;;33.80;25.67;;;3.90;99.90;;;;;;5060476;28;20927;-71
2023/01/18 11:43:31;;;;;;;27.70;25.10;;;3.90;99.90;;;;;;5055652;28;20471;-72
2023/01/18 11:46:05;;;;;;;27.80;24.90;;;3.70;99.90;;;;;;5058125;28;20467;-70
2023/01/18 11:48:38;;;;;;;27.00;24.20;;;3.50;99.90;;;;;;5062219;28;20490;-70
2023/01/18 11:51:14;;;;;;;27.87;25.07;;;3.60;99.90;;;;;;5062631;28;20482;-70
2023/01/18 11:53:48;;;;;;;27.60;25.00;;;4.30;99.90;;;;;;5067720;28;20496;-70
2023/01/18 11:56:28;;;;;;;28.47;25.83;;;4.80;99.90;;;;;;5061651;28;20473;-72
2023/01/18 11:58:56;;;;;;;29.57;26.57;;;5.10;99.90;;;;;;5061994;28;20475;-69
2023/01/18 12:01:37;;;;;;;30.77;23.50;;;5.30;99.90;;;;;;5064732;28;20450;-72
2023/01/18 12:04:11;;;;;;;27.13;24.37;;;5.20;99.90;;;;;;5058465;28;20467;-71
2023/01/18 12:06:50;;;;;;;25.87;23.67;;;5.20;99.90;;;;;;5072340;28;20552;-71
2023/01/18 12:09:32;;;;;;;25.23;22.00;;;4.70;99.90;;;;;;5066749;28;20492;-69
2023/01/18 12:12:14;;;;;;;23.67;21.60;;;4.80;99.90;;;;;;5068697;28;21183;-69
2023/01/18 12:14:51;;;;;;;23.83;21.63;;;4.70;99.90;;;;;;5061151;28;20496;-69
2023/01/18 12:17:28;;;;;;;23.53;21.23;;;4.80;99.90;;;;;;5065294;28;20458;-69
2023/01/18 12:20:15;;;;;;;23.97;21.87;;;4.70;99.90;;;;;;5067091;28;20469;-69
2023/01/18 12:23:22;;;;;;;22.27;20.27;;;4.60;99.90;;;;;;5061494;28;20476;-67
2023/01/18 12:26:01;;;;;;;24.27;21.77;;;4.90;99.90;;;;;;5065487;28;20549;-69
2023/01/18 12:28:38;;;;;;;21.97;19.87;;;5.00;99.90;;;;;;5062327;28;20481;-68
2023/01/18 12:31:14;;;;;;;23.70;21.40;;;5.30;99.90;;;;;;5063703;28;21175;-67
2023/01/18 12:33:50;;;;;;;21.67;19.83;;;5.30;99.90;;;;;;5058682;28;20496;-69
2023/01/18 12:36:50;;;;;;;22.90;20.97;;;5.10;99.90;;;;;;5064381;28;21078;-67
2023/01/18 12:39:35;;;;;;;22.93;20.70;;;5.10;99.90;;;;;;5068014;28;20497;-67
2023/01/18 12:42:05;;;;;;;23.93;21.73;;;5.50;99.90;;;;;;5067431;28;20462;-68
2023/01/18 12:44:59;;;;;;;22.00;20.10;;;5.80;99.90;;;;;;5066006;28;20464;-69
2023/01/18 12:47:34;;;;;;;21.17;19.17;;;5.60;99.90;;;;;;5071480;28;20479;-68
2023/01/18 12:50:07;;;;;;;20.60;18.90;;;5.60;99.90;;;;;;5068567;28;20469;-69
2023/01/18 12:52:41;;;;;;;21.40;19.50;;;5.70;99.90;;;;;;5063704;28;20459;-69
2023/01/18 12:55:19;;;;;;;21.40;19.47;;;5.70;99.90;;;;;;5064460;28;20733;-69
2023/01/18 12:57:48;;;;;;;19.13;17.30;;;5.80;99.90;;;;;;5064318;28;20695;-69
2023/01/18 13:00:19;;;;;;;19.80;18.10;;;5.90;99.90;;;;;;5059908;28;20477;-69
2023/01/18 13:02:50;;;;;;;19.20;17.90;;;5.90;99.90;;;;;;5058467;28;20467;-70
2023/01/18 13:05:21;;;;;;;20.10;18.40;;;5.70;99.90;;;;;;5071066;28;20478;-69
2023/01/18 13:07:52;;;;;;;19.83;18.10;;;5.60;99.90;;;;;;5068426;28;20467;-71
2023/01/18 13:10:23;;;;;;;21.03;19.13;;;5.60;99.90;;;;;;5069292;28;20753;-70
2023/01/18 13:12:51;;;;;;;19.87;18.20;;;5.70;99.90;;;;;;5061655;28;21027;-70
2023/01/18 13:15:29;;;;;;;20.13;18.50;;;5.70;99.90;;;;;;5070509;28;21580;-68